createdAt,value
2023-03-13T00:01:15.410Z,96096.28
2023-03-13T00:03:44.921Z,96089.63
2023-03-13T00:06:13.440Z,96093.28
2023-03-13T00:08:42.414Z,96097.31
2023-03-13T00:11:13.600Z,96093.03
2023-03-13T00:13:42.145Z,96096.28
2023-03-13T00:16:14.906Z,96090.00
2023-03-13T00:18:49.016Z,96096.19
2023-03-13T00:21:18.840Z,96089.25
2023-03-13T00:23:47.730Z,96087.78
2023-03-13T00:26:18.348Z,96088.19
2023-03-13T00:28:47.401Z,96084.47
2023-03-13T00:31:18.237Z,96082.03
2023-03-13T00:33:49.964Z,96074.50
2023-03-13T00:36:20.320Z,96081.97
2023-03-13T00:38:48.984Z,96077.50
2023-03-13T00:41:19.585Z,96062.25
2023-03-13T00:43:49.469Z,96065.09
2023-03-13T00:46:20.998Z,96060.94
2023-03-13T00:48:51.387Z,96060.28
2023-03-13T00:51:21.526Z,96049.72
2023-03-13T00:53:50.385Z,96060.00
2023-03-13T00:56:21.967Z,96053.28
2023-03-13T00:58:51.426Z,96053.44
2023-03-13T01:01:23.923Z,96048.38
2023-03-13T01:03:56.224Z,96039.19
2023-03-13T01:06:27.048Z,96041.16
2023-03-13T01:08:57.556Z,96032.00
2023-03-13T01:11:28.780Z,96031.75
2023-03-13T01:13:58.500Z,96028.31
2023-03-13T01:16:29.424Z,96025.16
2023-03-13T01:19:03.507Z,96021.94
2023-03-13T01:21:32.274Z,96011.41
2023-03-13T01:24:00.848Z,96009.06
2023-03-13T01:26:29.526Z,96000.03
2023-03-13T01:28:58.176Z,96000.75
2023-03-13T01:31:29.462Z,95992.75
2023-03-13T01:34:01.532Z,95990.69
2023-03-13T01:36:30.903Z,95980.38
2023-03-13T01:39:01.597Z,95981.09
2023-03-13T01:41:32.387Z,95977.66
2023-03-13T01:44:00.883Z,95976.41
2023-03-13T01:46:34.554Z,95972.88
2023-03-13T01:49:16.728Z,95963.38
2023-03-13T01:51:59.681Z,95959.59
2023-03-13T01:54:32.807Z,95955.38
2023-03-13T01:57:06.004Z,95940.41
2023-03-13T01:59:38.657Z,95940.94
2023-03-13T02:05:04.568Z,95931.78
2023-03-13T02:07:39.710Z,95929.88
2023-03-13T02:10:10.300Z,95930.31
2023-03-13T02:12:41.277Z,95932.13
2023-03-13T02:15:14.466Z,95930.88
2023-03-13T02:17:44.044Z,95923.91
2023-03-13T02:20:15.222Z,95926.41
2023-03-13T02:22:49.953Z,95921.38
2023-03-13T02:25:42.729Z,95920.91
2023-03-13T02:28:18.222Z,95912.31
2023-03-13T02:30:50.783Z,95916.47
2023-03-13T02:33:20.747Z,95910.97
2023-03-13T02:35:49.494Z,95905.59
2023-03-13T02:38:24.548Z,95901.81
2023-03-13T02:40:56.573Z,95890.00
2023-03-13T02:43:31.735Z,95884.53
2023-03-13T02:46:12.945Z,95872.72
2023-03-13T02:48:47.563Z,95878.13
2023-03-13T02:51:23.563Z,95870.47
2023-03-13T02:53:54.079Z,95861.75
2023-03-13T02:56:27.572Z,95863.22
2023-03-13T02:58:56.701Z,95859.91
2023-03-13T03:01:27.167Z,95857.97
2023-03-13T03:03:55.855Z,95846.75
2023-03-13T03:06:23.923Z,95840.31
2023-03-13T03:08:52.756Z,95837.81
2023-03-13T03:11:21.108Z,95832.88
2023-03-13T03:13:55.680Z,95836.19
2023-03-13T03:16:24.292Z,95827.06
2023-03-13T03:18:52.577Z,95819.25
2023-03-13T03:21:21.290Z,95826.94
2023-03-13T03:23:49.345Z,95821.66
2023-03-13T03:26:17.459Z,95816.84
2023-03-13T03:28:45.731Z,95813.63
2023-03-13T03:31:18.008Z,95814.09
2023-03-13T03:33:47.238Z,95814.31
2023-03-13T03:36:20.439Z,95825.88
2023-03-13T03:38:49.628Z,95818.31
2023-03-13T03:41:20.682Z,95822.81
2023-03-13T03:43:49.239Z,95812.94
2023-03-13T03:46:22.049Z,95813.41
2023-03-13T03:48:50.067Z,95812.47
2023-03-13T03:51:18.126Z,95811.53
2023-03-13T03:53:48.361Z,95816.34
2023-03-13T03:56:16.594Z,95811.97
2023-03-13T03:58:49.506Z,95810.28
2023-03-13T04:01:38.104Z,95806.72
2023-03-13T04:04:06.936Z,95809.31
2023-03-13T04:06:35.284Z,95809.44
2023-03-13T04:09:05.559Z,95800.47
2023-03-13T04:11:35.008Z,95802.09
2023-03-13T04:14:03.063Z,95801.72
2023-03-13T04:16:31.286Z,95805.50
2023-03-13T04:19:01.541Z,95801.50
2023-03-13T04:21:29.649Z,95801.81
2023-03-13T04:24:05.167Z,95794.28
2023-03-13T04:26:35.212Z,95792.69
2023-03-13T04:29:03.525Z,95789.59
2023-03-13T04:31:45.805Z,95794.22
2023-03-13T04:34:26.816Z,95783.59
2023-03-13T04:37:15.109Z,95790.31
2023-03-13T04:40:07.768Z,95784.63
2023-03-13T04:42:48.614Z,95778.50
2023-03-13T04:45:28.032Z,95782.00
2023-03-13T04:48:16.088Z,95787.13
2023-03-13T04:50:52.398Z,95778.72
2023-03-13T04:53:29.013Z,95774.59
2023-03-13T04:56:41.222Z,95781.19
2023-03-13T04:59:35.271Z,95768.88
2023-03-13T05:02:21.430Z,95767.28
2023-03-13T05:04:52.059Z,95763.75
2023-03-13T05:07:44.760Z,95764.44
2023-03-13T05:10:31.464Z,95764.22
2023-03-13T05:13:16.404Z,95756.41
2023-03-13T05:16:13.762Z,95771.69
2023-03-13T05:19:00.355Z,95762.03
2023-03-13T05:21:51.631Z,95772.88
2023-03-13T05:24:42.519Z,95762.91
2023-03-13T05:27:36.084Z,95769.88
2023-03-13T05:30:16.871Z,95764.28
2023-03-13T05:32:55.634Z,95765.94
2023-03-13T05:35:41.431Z,95765.09
2023-03-13T05:39:16.639Z,95761.56
2023-03-13T05:41:51.909Z,95757.72
2023-03-13T05:44:40.457Z,95750.22
2023-03-13T05:47:47.164Z,95739.44
2023-03-13T05:50:30.713Z,95748.38
2023-03-13T05:53:28.374Z,95746.31
2023-03-13T05:56:14.732Z,95751.19
2023-03-13T05:59:10.372Z,95754.69
2023-03-13T06:01:58.044Z,95755.00
2023-03-13T06:04:32.243Z,95756.63
2023-03-13T06:07:04.997Z,95763.28
2023-03-13T06:09:33.758Z,95753.09
2023-03-13T06:12:02.058Z,95757.91
2023-03-13T06:14:32.059Z,95753.28
2023-03-13T06:17:18.766Z,95754.81
2023-03-13T06:19:47.983Z,95746.38
2023-03-13T06:22:18.172Z,95753.09
2023-03-13T06:24:48.970Z,95753.28
2023-03-13T06:27:17.252Z,95747.59
2023-03-13T06:29:47.017Z,95745.19
2023-03-13T06:32:15.113Z,95738.22
2023-03-13T06:34:43.364Z,95740.38
2023-03-13T06:37:11.434Z,95725.91
2023-03-13T06:39:39.935Z,95741.25
2023-03-13T06:42:08.707Z,95737.09
2023-03-13T06:44:36.932Z,95744.94
2023-03-13T06:47:06.774Z,95743.59
2023-03-13T06:49:35.073Z,95747.41
2023-03-13T06:52:03.223Z,95751.66
2023-03-13T06:54:31.760Z,95756.56
2023-03-13T06:56:59.786Z,95762.69
2023-03-13T06:59:28.140Z,95767.81
2023-03-13T07:01:56.376Z,95771.00
2023-03-13T07:04:25.870Z,95765.25
2023-03-13T07:06:53.874Z,95773.97
2023-03-13T07:09:21.916Z,95772.13
2023-03-13T07:11:50.039Z,95780.28
2023-03-13T07:14:18.181Z,95770.53
2023-03-13T07:16:46.930Z,95780.53
2023-03-13T07:19:15.407Z,95767.09
2023-03-13T07:21:46.526Z,95761.75
2023-03-13T07:24:15.138Z,95773.72
2023-03-13T07:26:54.498Z,95764.44
2023-03-13T07:29:31.564Z,95748.84
2023-03-13T07:31:59.658Z,95758.38
2023-03-13T07:34:27.930Z,95748.53
2023-03-13T07:36:57.235Z,95762.59
2023-03-13T07:39:25.585Z,95759.50
2023-03-13T07:41:53.599Z,95755.81
2023-03-13T07:44:21.940Z,95761.03
2023-03-13T07:46:50.215Z,95754.22
2023-03-13T07:49:18.200Z,95749.06
2023-03-13T07:51:47.806Z,95745.31
2023-03-13T07:54:17.102Z,95743.59
2023-03-13T07:56:45.441Z,95739.47
2023-03-13T07:59:13.480Z,95738.88
2023-03-13T08:01:41.481Z,95723.13
2023-03-13T08:04:13.606Z,95708.44
2023-03-13T08:06:42.128Z,95703.84
2023-03-13T08:09:11.237Z,95692.78
2023-03-13T08:11:42.391Z,95691.03
2023-03-13T08:14:10.966Z,95694.50
2023-03-13T08:16:39.512Z,95699.53
2023-03-13T08:19:08.499Z,95704.88
2023-03-13T08:21:38.613Z,95708.84
2023-03-13T08:24:10.631Z,95706.59
2023-03-13T08:26:42.345Z,95717.44
2023-03-13T08:29:13.488Z,95722.06
2023-03-13T08:31:45.724Z,95709.75
2023-03-13T08:34:14.652Z,95718.25
2023-03-13T08:36:43.290Z,95703.75
2023-03-13T08:39:14.291Z,95696.16
2023-03-13T08:41:43.980Z,95700.66
2023-03-13T08:44:14.415Z,95702.81
2023-03-13T08:46:43.757Z,95710.16
2023-03-13T08:49:13.491Z,95714.16
2023-03-13T08:51:42.187Z,95711.66
2023-03-13T08:54:11.026Z,95707.47
2023-03-13T08:56:40.915Z,95713.19
2023-03-13T08:59:11.052Z,95704.44
2023-03-13T09:01:39.075Z,95707.06
2023-03-13T09:04:07.435Z,95698.59
2023-03-13T09:06:36.841Z,95707.28
2023-03-13T09:09:07.073Z,95712.19
2023-03-13T09:11:37.162Z,95701.34
2023-03-13T09:14:05.297Z,95695.81
2023-03-13T09:16:35.910Z,95703.81
2023-03-13T09:19:04.402Z,95694.13
2023-03-13T09:21:34.902Z,95697.59
2023-03-13T09:24:03.900Z,95703.47
2023-03-13T09:26:32.247Z,95716.34
2023-03-13T09:29:00.386Z,95715.53
2023-03-13T09:31:31.121Z,95719.53
2023-03-13T09:34:01.471Z,95723.81
2023-03-13T09:36:30.009Z,95728.88
2023-03-13T09:39:00.521Z,95722.84
2023-03-13T09:41:37.158Z,95728.16
2023-03-13T09:44:16.910Z,95725.97
2023-03-13T09:46:50.847Z,95714.66
2023-03-13T09:49:34.821Z,95702.03
2023-03-13T09:52:15.642Z,95695.75
2023-03-13T09:54:53.057Z,95686.22
2023-03-13T09:57:29.378Z,95690.97
2023-03-13T10:00:06.984Z,95691.53
2023-03-13T10:02:37.948Z,95692.56
2023-03-13T10:05:19.901Z,95679.38
2023-03-13T10:07:47.981Z,95674.34
2023-03-13T10:10:19.591Z,95681.59
2023-03-13T10:12:50.150Z,95671.88
2023-03-13T10:15:35.280Z,95667.94
2023-03-13T10:18:18.591Z,95659.75
2023-03-13T10:20:51.268Z,95660.25
2023-03-13T10:23:36.414Z,95656.78
2023-03-13T10:26:04.477Z,95654.13
2023-03-13T10:28:32.618Z,95650.16
2023-03-13T10:31:16.498Z,95651.22
2023-03-13T10:33:44.897Z,95652.59
2023-03-13T10:36:15.464Z,95642.28
2023-03-13T10:38:50.881Z,95647.00
2023-03-13T10:41:38.454Z,95651.00
2023-03-13T10:44:14.192Z,95648.34
2023-03-13T10:46:45.754Z,95657.38
2023-03-13T10:49:17.948Z,95643.88
2023-03-13T10:51:49.741Z,95632.72
2023-03-13T10:54:23.829Z,95627.91
2023-03-13T10:56:53.084Z,95629.00
2023-03-13T10:59:25.858Z,95626.91
2023-03-13T11:02:02.244Z,95626.38
2023-03-13T11:04:33.710Z,95623.72
2023-03-13T11:07:07.043Z,95629.81
2023-03-13T11:09:35.055Z,95614.69
2023-03-13T11:12:07.882Z,95610.72
2023-03-13T11:14:35.993Z,95609.38
2023-03-13T11:17:12.093Z,95604.09
2023-03-13T11:20:00.610Z,95600.88
2023-03-13T11:22:49.692Z,95583.88
2023-03-13T11:25:30.416Z,95583.28
2023-03-13T11:28:30.804Z,95570.56
2023-03-13T11:31:12.153Z,95577.44
2023-03-13T11:33:53.327Z,95563.56
2023-03-13T11:36:28.702Z,95552.06
2023-03-13T11:39:21.885Z,95557.56
2023-03-13T11:42:01.189Z,95564.13
2023-03-13T11:44:48.872Z,95546.75
2023-03-13T11:47:39.569Z,95520.34
2023-03-13T11:50:24.825Z,95522.00
2023-03-13T11:53:14.110Z,95525.69
2023-03-13T11:56:05.246Z,95511.31
2023-03-13T11:58:47.296Z,95511.19
2023-03-13T12:01:19.540Z,95495.19
2023-03-13T12:04:01.017Z,95486.16
2023-03-13T12:06:37.391Z,95474.03
2023-03-13T12:09:13.655Z,95486.78
2023-03-13T12:12:03.197Z,95469.00
2023-03-13T12:14:38.410Z,95460.19
2023-03-13T12:17:12.276Z,95440.59
2023-03-13T12:19:49.512Z,95438.06
2023-03-13T12:22:24.563Z,95432.84
2023-03-13T12:24:59.610Z,95419.34
2023-03-13T12:27:34.091Z,95415.50
2023-03-13T12:30:07.844Z,95406.09
2023-03-13T12:32:40.955Z,95401.72
2023-03-13T12:35:19.254Z,95389.47
2023-03-13T12:37:55.145Z,95384.16
2023-03-13T12:40:30.274Z,95380.41
2023-03-13T12:43:05.652Z,95364.56
2023-03-13T12:45:36.360Z,95353.66
2023-03-13T12:48:29.431Z,95354.59
2023-03-13T12:51:16.250Z,95334.31
2023-03-13T12:54:12.472Z,95338.00
2023-03-13T12:56:56.792Z,95326.06
2023-03-13T12:59:31.819Z,95314.81
2023-03-13T13:02:01.142Z,95314.03
2023-03-13T13:04:34.084Z,95312.44
2023-03-13T13:07:06.747Z,95298.25
2023-03-13T13:09:39.275Z,95296.34
2023-03-13T13:12:24.032Z,95291.75
2023-03-13T13:15:19.456Z,95286.94
2023-03-13T13:18:17.296Z,95282.53
2023-03-13T13:20:48.915Z,95288.53
2023-03-13T13:23:34.786Z,95267.00
2023-03-13T13:26:49.496Z,95259.50
2023-03-13T13:29:57.955Z,95249.22
2023-03-13T13:32:46.797Z,95237.84
2023-03-13T13:35:33.069Z,95239.03
2023-03-13T13:38:40.156Z,95230.59
2023-03-13T13:41:38.718Z,95221.81
2023-03-13T13:44:28.175Z,95226.28
2023-03-13T13:47:01.959Z,95211.44
2023-03-13T13:49:52.320Z,95216.75
2023-03-13T13:52:43.282Z,95198.38
2023-03-13T13:55:33.566Z,95200.97
2023-03-13T13:58:05.327Z,95195.72
2023-03-13T14:00:41.985Z,95191.06
2023-03-13T14:03:23.721Z,95182.41
2023-03-13T14:05:57.153Z,95178.06
2023-03-13T14:08:36.616Z,95179.19
2023-03-13T14:11:23.914Z,95172.06
2023-03-13T14:14:12.284Z,95158.09
2023-03-13T14:16:42.342Z,95161.13
2023-03-13T14:19:24.463Z,95156.19
2023-03-13T14:22:09.473Z,95141.28
2023-03-13T14:24:41.502Z,95135.56
2023-03-13T14:27:18.150Z,95132.78
2023-03-13T14:30:01.597Z,95133.69
2023-03-13T14:32:29.860Z,95126.25
2023-03-13T14:34:58.006Z,95121.34
2023-03-13T14:37:38.699Z,95110.25
2023-03-13T14:40:10.071Z,95112.91
2023-03-13T14:42:48.585Z,95110.03
2023-03-13T14:45:25.121Z,95100.34
2023-03-13T14:47:54.319Z,95095.63
2023-03-13T14:50:25.849Z,95090.88
2023-03-13T14:53:00.106Z,95080.16
2023-03-13T14:55:35.151Z,95066.63
2023-03-13T14:58:26.929Z,95062.00
2023-03-13T15:00:59.433Z,95055.16
2023-03-13T15:03:33.210Z,95051.22
2023-03-13T15:06:18.122Z,95044.50
2023-03-13T15:08:50.214Z,95035.88
2023-03-13T15:11:30.805Z,95029.47
2023-03-13T15:13:59.264Z,95022.22
2023-03-13T15:16:29.501Z,95009.38
2023-03-13T15:18:57.933Z,95010.16
2023-03-13T15:21:30.104Z,94986.50
2023-03-13T15:24:04.320Z,94988.78
2023-03-13T15:26:32.440Z,94983.78
2023-03-13T15:29:00.503Z,94983.97
2023-03-13T15:31:30.620Z,94962.81
2023-03-13T15:34:01.610Z,94961.88
2023-03-13T15:36:31.310Z,94951.28
2023-03-13T15:39:00.790Z,94951.88
2023-03-13T15:41:28.906Z,94947.56
2023-03-13T15:43:57.426Z,94946.50
2023-03-13T15:46:27.115Z,94938.78
2023-03-13T15:48:56.746Z,94934.84
2023-03-13T15:51:24.807Z,94924.41
2023-03-13T15:53:53.497Z,94924.22
2023-03-13T15:56:23.938Z,94916.28
2023-03-13T15:58:52.453Z,94908.63
2023-03-13T16:01:23.075Z,94905.66
2023-03-13T16:03:51.480Z,94902.34
2023-03-13T16:06:28.237Z,94894.81
2023-03-13T16:08:56.361Z,94879.78
2023-03-13T16:11:25.719Z,94880.16
2023-03-13T16:13:53.828Z,94875.41
2023-03-13T16:16:24.527Z,94876.88
2023-03-13T16:18:54.079Z,94866.63
2023-03-13T16:21:25.845Z,94857.66
2023-03-13T16:23:54.611Z,94862.81
2023-03-13T16:26:27.123Z,94858.09
2023-03-13T16:28:56.317Z,94854.09
2023-03-13T16:31:28.687Z,94858.78
2023-03-13T16:33:58.478Z,94854.72
2023-03-13T16:36:30.071Z,94852.06
2023-03-13T16:38:59.240Z,94857.19
2023-03-13T16:41:29.656Z,94851.59
2023-03-13T16:43:58.443Z,94848.59
2023-03-13T16:46:33.586Z,94844.22
2023-03-13T16:49:01.712Z,94853.84
2023-03-13T16:51:30.792Z,94847.00
2023-03-13T16:54:00.862Z,94834.94
2023-03-13T16:56:33.693Z,94836.34
2023-03-13T16:59:03.810Z,94832.81
2023-03-13T17:01:32.150Z,94840.25
2023-03-13T17:04:00.990Z,94835.00
2023-03-13T17:06:33.214Z,94829.19
2023-03-13T17:09:02.207Z,94824.16
2023-03-13T17:11:31.838Z,94831.16
2023-03-13T17:14:00.032Z,94820.81
2023-03-13T17:16:33.020Z,94824.56
2023-03-13T17:19:02.124Z,94812.94
2023-03-13T17:21:32.880Z,94805.06
2023-03-13T17:24:01.410Z,94807.81
2023-03-13T17:26:34.450Z,94813.13
2023-03-13T17:29:02.935Z,94804.69
2023-03-13T17:31:37.060Z,94801.50
2023-03-13T17:34:05.424Z,94794.44
2023-03-13T17:36:33.646Z,94780.44
2023-03-13T17:39:08.802Z,94784.50
2023-03-13T17:41:38.302Z,94770.50
2023-03-13T17:44:07.638Z,94762.91
2023-03-13T17:46:40.127Z,94757.38
2023-03-13T17:49:08.623Z,94758.75
2023-03-13T17:51:38.311Z,94756.38
2023-03-13T17:54:06.507Z,94750.88
2023-03-13T17:56:38.877Z,94741.63
2023-03-13T17:59:14.008Z,94733.94
2023-03-13T18:01:43.045Z,94723.41
2023-03-13T18:04:12.981Z,94707.53
2023-03-13T18:06:43.421Z,94703.31
2023-03-13T18:09:17.412Z,94692.47
2023-03-13T18:11:46.137Z,94709.03
2023-03-13T18:14:15.616Z,94716.22
2023-03-13T18:16:47.861Z,94732.28
2023-03-13T18:19:21.235Z,94758.19
2023-03-13T18:21:52.700Z,94774.75
2023-03-13T18:24:22.239Z,94823.97
2023-03-13T18:26:51.408Z,94804.19
2023-03-13T18:29:26.656Z,94815.44
2023-03-13T18:31:55.859Z,94904.38
2023-03-13T18:34:24.758Z,94938.66
2023-03-13T18:36:53.553Z,94949.09
2023-03-13T18:39:22.542Z,94959.69
2023-03-13T18:41:52.250Z,94842.41
2023-03-13T18:44:21.612Z,94800.31
2023-03-13T18:46:52.010Z,94838.06
2023-03-13T18:49:24.782Z,94832.16
2023-03-13T18:51:55.344Z,94830.88
2023-03-13T18:54:23.610Z,94862.22
2023-03-13T18:56:51.617Z,94852.72
2023-03-13T18:59:23.437Z,94767.94
2023-03-13T19:01:51.797Z,94721.19
2023-03-13T19:04:21.004Z,94727.78
2023-03-13T19:06:50.137Z,94752.59
2023-03-13T19:09:42.345Z,94766.81
2023-03-13T19:12:08.544Z,94750.16
2023-03-13T19:14:38.322Z,94720.94
2023-03-13T19:17:12.886Z,94724.53
2023-03-13T19:19:40.987Z,94720.25
2023-03-13T19:22:14.942Z,94726.84
2023-03-13T19:24:42.960Z,94752.56
2023-03-13T19:27:15.381Z,94776.66
2023-03-13T19:29:46.453Z,94776.16
2023-03-13T19:32:16.097Z,94796.56
2023-03-13T19:34:44.435Z,94836.59
2023-03-13T19:37:14.614Z,94873.50
2023-03-13T19:39:43.680Z,94890.22
2023-03-13T19:42:11.814Z,94914.91
2023-03-13T19:44:40.255Z,94911.25
2023-03-13T19:47:35.464Z,94917.06
2023-03-13T19:50:03.651Z,94936.94
2023-03-13T19:52:32.381Z,94958.97
2023-03-13T19:55:05.491Z,94983.38
2023-03-13T19:57:33.758Z,94993.09
2023-03-13T20:00:01.852Z,94992.59
2023-03-13T20:02:42.492Z,95032.19
2023-03-13T20:05:11.340Z,95062.50
2023-03-13T20:07:42.058Z,95100.44
2023-03-13T20:10:11.816Z,95120.97
2023-03-13T20:12:39.953Z,95116.53
2023-03-13T20:15:10.238Z,95104.66
2023-03-13T20:17:38.504Z,95116.31
2023-03-13T20:20:10.951Z,95115.78
2023-03-13T20:22:39.284Z,95130.31
2023-03-13T20:25:09.410Z,95122.91
2023-03-13T20:27:38.983Z,95116.03
2023-03-13T20:30:09.192Z,95120.25
2023-03-13T20:32:41.165Z,95105.94
2023-03-13T20:35:15.940Z,95117.31
2023-03-13T20:37:44.322Z,95115.47
2023-03-13T20:40:14.105Z,95126.59
2023-03-13T20:42:42.236Z,95128.19
2023-03-13T20:45:10.895Z,95119.47
2023-03-13T20:47:39.111Z,95115.75
2023-03-13T20:50:08.595Z,95109.16
2023-03-13T20:52:37.935Z,95110.75
2023-03-13T20:55:07.089Z,95107.06
2023-03-13T20:57:36.614Z,95115.75
2023-03-13T21:00:07.023Z,95118.97
2023-03-13T21:02:35.064Z,95079.81
2023-03-13T21:05:03.098Z,95023.78
2023-03-13T21:07:32.166Z,95042.56
2023-03-13T21:10:01.537Z,95076.66
2023-03-13T21:12:29.737Z,95108.66
2023-03-13T21:14:58.804Z,95120.78
2023-03-13T21:17:27.339Z,95131.63
2023-03-13T21:19:55.353Z,95130.81
2023-03-13T21:22:24.151Z,95142.47
2023-03-13T21:24:52.129Z,95158.31
2023-03-13T21:27:21.994Z,95159.34
2023-03-13T21:29:50.824Z,95148.75
2023-03-13T21:32:19.515Z,95089.84
2023-03-13T21:34:47.854Z,95046.75
2023-03-13T21:37:18.286Z,95077.69
2023-03-13T21:39:46.746Z,95086.69
2023-03-13T21:42:14.870Z,95086.94
2023-03-13T21:44:44.620Z,95097.50
2023-03-13T21:47:13.456Z,95109.34
2023-03-13T21:49:41.489Z,95099.31
2023-03-13T21:52:09.571Z,95070.50
2023-03-13T21:54:37.738Z,95027.91
2023-03-13T21:57:07.488Z,95019.44
2023-03-13T21:59:35.470Z,95002.03
2023-03-13T22:02:05.268Z,94991.75
2023-03-13T22:04:33.401Z,94977.22
2023-03-13T22:07:01.458Z,95000.19
2023-03-13T22:09:29.486Z,95019.47
2023-03-13T22:11:58.506Z,95025.53
2023-03-13T22:14:27.942Z,95011.22
2023-03-13T22:16:56.659Z,95004.06
2023-03-13T22:19:26.061Z,94982.47
2023-03-13T22:21:54.080Z,94965.31
2023-03-13T22:24:22.061Z,94954.25
2023-03-13T22:26:50.076Z,94948.97
2023-03-13T22:29:18.126Z,94948.41
2023-03-13T22:31:46.139Z,94965.56
2023-03-13T22:34:14.129Z,94979.53
2023-03-13T22:36:43.473Z,94981.13
2023-03-13T22:39:11.463Z,94978.47
2023-03-13T22:41:39.484Z,94962.38
2023-03-13T22:44:07.497Z,94973.44
2023-03-13T22:46:35.697Z,94971.56
2023-03-13T22:49:04.028Z,94980.00
2023-03-13T22:51:32.131Z,94990.97
2023-03-13T22:54:01.447Z,94993.63
2023-03-13T22:56:29.498Z,94999.38
2023-03-13T22:58:57.510Z,95007.03
2023-03-13T23:01:26.604Z,95010.69
2023-03-13T23:03:55.019Z,95024.63
2023-03-13T23:06:26.132Z,95021.44
2023-03-13T23:08:54.596Z,95027.19
2023-03-13T23:11:23.942Z,95017.22
2023-03-13T23:13:52.042Z,95011.78
2023-03-13T23:16:20.185Z,94994.94
2023-03-13T23:18:48.308Z,94949.28
2023-03-13T23:21:17.377Z,94921.13
2023-03-13T23:23:46.999Z,94938.75
2023-03-13T23:26:17.150Z,94998.38
2023-03-13T23:28:46.745Z,94994.13
2023-03-13T23:31:17.606Z,94989.06
2023-03-13T23:33:46.411Z,94995.94
2023-03-13T23:36:18.053Z,94995.78
2023-03-13T23:38:49.964Z,95001.84
2023-03-13T23:41:18.368Z,94999.03
2023-03-13T23:43:48.010Z,94993.22
2023-03-13T23:46:17.657Z,94998.25
2023-03-13T23:48:46.095Z,94993.56
2023-03-13T23:51:14.472Z,94974.81
2023-03-13T23:53:44.514Z,94967.13
2023-03-13T23:56:13.460Z,94975.88
2023-03-13T23:58:42.103Z,94943.41
